sensor_id;sensor_type;location;lat;lon;timestamp;pressure;altitude;pressure_sealevel;temperature;humidity
73316;BME280;61545;53.726;-0.444;2022-07-29T00:02:35;1017.0;;;15.4;73.0
73316;BME280;61545;53.726;-0.444;2022-07-29T00:07:35;1017.0;;;15.0;73.0
73316;BME280;61545;53.726;-0.444;2022-07-29T00:12:35;1017.0;;;15.2;73.3
73316;BME280;61545;53.726;-0.444;2022-07-29T00:17:35;1017.0;;;15.4;73.4
73316;BME280;61545;53.726;-0.444;2022-07-29T00:22:36;1017.0;;;15.4;73.4
73316;BME280;61545;53.726;-0.444;2022-07-29T00:27:35;1017.0;;;15.3;73.4
73316;BME280;61545;53.726;-0.444;2022-07-29T00:32:35;1017.0;;;15.2;73.5
73316;BME280;61545;53.726;-0.444;2022-07-29T00:37:35;1017.0;;;15.3;73.5
73316;BME280;61545;53.726;-0.444;2022-07-29T00:42:41;1017.0;;;15.3;73.6
73316;BME280;61545;53.726;-0.444;2022-07-29T00:47:35;1017.0;;;15.2;73.8
73316;BME280;61545;53.726;-0.444;2022-07-29T00:52:35;1017.0;;;15.2;74.0
73316;BME280;61545;53.726;-0.444;2022-07-29T00:57:35;1017.0;;;15.2;74.2
73316;BME280;61545;53.726;-0.444;2022-07-29T01:02:35;1016.9;;;15.2;74.3
73316;BME280;61545;53.726;-0.444;2022-07-29T01:07:35;1016.9;;;15.1;74.4
73316;BME280;61545;53.726;-0.444;2022-07-29T01:12:35;1016.9;;;15.1;74.6
73316;BME280;61545;53.726;-0.444;2022-07-29T01:17:37;1016.9;;;15.0;74.6
73316;BME280;61545;53.726;-0.444;2022-07-29T01:22:40;1016.9;;;15.0;74.8
73316;BME280;61545;53.726;-0.444;2022-07-29T01:27:41;1016.9;;;15.0;75.2
73316;BME280;61545;53.726;-0.444;2022-07-29T01:32:36;1016.9;;;15.2;75.5
73316;BME280;61545;53.726;-0.444;2022-07-29T01:37:38;1016.9;;;15.1;75.9
73316;BME280;61545;53.726;-0.444;2022-07-29T01:42:36;1016.9;;;15.1;76.1
73316;BME280;61545;53.726;-0.444;2022-07-29T01:47:39;1016.9;;;14.9;76.4
73316;BME280;61545;53.726;-0.444;2022-07-29T01:52:38;1016.9;;;15.0;76.6
73316;BME280;61545;53.726;-0.444;2022-07-29T01:57:35;1016.9;;;14.9;76.8
73316;BME280;61545;53.726;-0.444;2022-07-29T02:02:35;1016.9;;;15.0;77.1
73316;BME280;61545;53.726;-0.444;2022-07-29T02:07:35;1017.0;;;15.0;77.2
73316;BME280;61545;53.726;-0.444;2022-07-29T02:12:35;1016.9;;;15.0;77.5
73316;BME280;61545;53.726;-0.444;2022-07-29T02:17:38;1017.0;;;14.9;77.7
73316;BME280;61545;53.726;-0.444;2022-07-29T02:22:36;1016.9;;;15.0;77.7
73316;BME280;61545;53.726;-0.444;2022-07-29T02:27:35;1017.0;;;15.0;77.8
73316;BME280;61545;53.726;-0.444;2022-07-29T02:32:35;1016.9;;;15.0;77.9
73316;BME280;61545;53.726;-0.444;2022-07-29T02:37:35;1016.9;;;14.9;78.0
73316;BME280;61545;53.726;-0.444;2022-07-29T02:42:35;1016.9;;;14.9;78.2
73316;BME280;61545;53.726;-0.444;2022-07-29T02:47:36;1016.9;;;14.9;78.3
73316;BME280;61545;53.726;-0.444;2022-07-29T02:52:37;1016.9;;;14.9;78.3
73316;BME280;61545;53.726;-0.444;2022-07-29T02:57:38;1016.8;;;14.7;78.6
73316;BME280;61545;53.726;-0.444;2022-07-29T03:02:36;1016.8;;;14.8;78.9
73316;BME280;61545;53.726;-0.444;2022-07-29T03:07:35;1016.8;;;14.7;79.3
73316;BME280;61545;53.726;-0.444;2022-07-29T03:12:35;1016.8;;;14.7;79.5
73316;BME280;61545;53.726;-0.444;2022-07-29T03:17:35;1016.8;;;14.7;79.6
73316;BME280;61545;53.726;-0.444;2022-07-29T03:22:38;1016.8;;;14.7;79.6
73316;BME280;61545;53.726;-0.444;2022-07-29T03:27:35;1016.8;;;14.7;79.8
73316;BME280;61545;53.726;-0.444;2022-07-29T03:32:35;1016.8;;;14.7;80.0
73316;BME280;61545;53.726;-0.444;2022-07-29T03:37:35;1016.8;;;14.3;80.3
73316;BME280;61545;53.726;-0.444;2022-07-29T03:42:36;1016.9;;;14.6;80.5
73316;BME280;61545;53.726;-0.444;2022-07-29T03:47:35;1016.9;;;14.7;80.4
73316;BME280;61545;53.726;-0.444;2022-07-29T03:52:35;1016.9;;;14.7;80.2
73316;BME280;61545;53.726;-0.444;2022-07-29T03:57:35;1016.9;;;14.5;80.4
73316;BME280;61545;53.726;-0.444;2022-07-29T04:02:35;1016.9;;;14.4;80.7
73316;BME280;61545;53.726;-0.444;2022-07-29T04:07:35;1016.9;;;14.5;80.4
73316;BME280;61545;53.726;-0.444;2022-07-29T04:12:35;1016.9;;;14.5;80.0
73316;BME280;61545;53.726;-0.444;2022-07-29T04:17:35;1016.9;;;14.6;79.9
73316;BME280;61545;53.726;-0.444;2022-07-29T04:22:35;1017.0;;;14.6;79.9
73316;BME280;61545;53.726;-0.444;2022-07-29T04:27:35;1017.0;;;14.6;80.1
73316;BME280;61545;53.726;-0.444;2022-07-29T04:32:35;1017.0;;;14.5;80.4
73316;BME280;61545;53.726;-0.444;2022-07-29T04:37:35;1016.9;;;14.5;80.5
73316;BME280;61545;53.726;-0.444;2022-07-29T04:42:35;1017.0;;;14.5;80.7
73316;BME280;61545;53.726;-0.444;2022-07-29T04:47:35;1017.0;;;14.6;80.8
73316;BME280;61545;53.726;-0.444;2022-07-29T04:52:35;1017.0;;;14.6;80.7
73316;BME280;61545;53.726;-0.444;2022-07-29T04:57:35;1017.0;;;14.7;80.8
73316;BME280;61545;53.726;-0.444;2022-07-29T05:02:35;1017.0;;;15.0;80.8
73316;BME280;61545;53.726;-0.444;2022-07-29T05:07:35;1017.0;;;15.5;80.8
73316;BME280;61545;53.726;-0.444;2022-07-29T05:12:35;1017.0;;;15.2;80.3
73316;BME280;61545;53.726;-0.444;2022-07-29T05:17:35;1017.1;;;15.2;80.1
73316;BME280;61545;53.726;-0.444;2022-07-29T05:22:35;1017.0;;;15.2;79.7
73316;BME280;61545;53.726;-0.444;2022-07-29T05:27:35;1017.1;;;15.5;79.3
73316;BME280;61545;53.726;-0.444;2022-07-29T05:32:35;1017.1;;;15.7;78.9
73316;BME280;61545;53.726;-0.444;2022-07-29T05:37:35;1017.0;;;15.2;78.3
73316;BME280;61545;53.726;-0.444;2022-07-29T05:42:35;1017.0;;;15.7;77.6
73316;BME280;61545;53.726;-0.444;2022-07-29T05:47:35;1017.1;;;15.6;77.0
73316;BME280;61545;53.726;-0.444;2022-07-29T05:52:35;1017.1;;;16.0;76.5
73316;BME280;61545;53.726;-0.444;2022-07-29T05:57:35;1017.1;;;16.0;75.4
73316;BME280;61545;53.726;-0.444;2022-07-29T06:02:35;1017.1;;;16.3;74.1
73316;BME280;61545;53.726;-0.444;2022-07-29T06:07:35;1017.2;;;16.3;73.1
73316;BME280;61545;53.726;-0.444;2022-07-29T06:12:35;1017.2;;;16.6;72.2
73316;BME280;61545;53.726;-0.444;2022-07-29T06:17:35;1017.2;;;16.7;71.0
73316;BME280;61545;53.726;-0.444;2022-07-29T06:22:35;1017.2;;;16.6;70.2
73316;BME280;61545;53.726;-0.444;2022-07-29T06:27:35;1017.2;;;16.7;69.9
73316;BME280;61545;53.726;-0.444;2022-07-29T06:32:35;1017.2;;;16.9;69.5
73316;BME280;61545;53.726;-0.444;2022-07-29T06:37:35;1017.3;;;16.9;69.0
73316;BME280;61545;53.726;-0.444;2022-07-29T06:42:35;1017.2;;;16.9;68.8
73316;BME280;61545;53.726;-0.444;2022-07-29T06:47:35;1017.3;;;17.4;68.3
73316;BME280;61545;53.726;-0.444;2022-07-29T06:52:35;1017.2;;;19.5;67.7
73316;BME280;61545;53.726;-0.444;2022-07-29T06:57:35;1017.2;;;20.5;65.6
73316;BME280;61545;53.726;-0.444;2022-07-29T07:02:35;1017.1;;;20.5;63.8
73316;BME280;61545;53.726;-0.444;2022-07-29T07:07:35;1017.2;;;19.0;63.2
73316;BME280;61545;53.726;-0.444;2022-07-29T07:12:35;1017.2;;;19.0;63.6
73316;BME280;61545;53.726;-0.444;2022-07-29T07:17:35;1017.2;;;18.4;63.4
73316;BME280;61545;53.726;-0.444;2022-07-29T07:22:35;1017.2;;;18.2;63.3
73316;BME280;61545;53.726;-0.444;2022-07-29T07:27:35;1017.2;;;18.0;63.5
73316;BME280;61545;53.726;-0.444;2022-07-29T07:32:35;1017.2;;;17.9;63.6
73316;BME280;61545;53.726;-0.444;2022-07-29T07:37:35;1017.2;;;18.0;63.8
73316;BME280;61545;53.726;-0.444;2022-07-29T07:42:35;1017.2;;;18.4;63.8
73316;BME280;61545;53.726;-0.444;2022-07-29T07:47:35;1017.3;;;18.7;62.8
73316;BME280;61545;53.726;-0.444;2022-07-29T07:52:37;1017.2;;;19.1;61.7
73316;BME280;61545;53.726;-0.444;2022-07-29T07:57:35;1017.2;;;21.8;60.7
73316;BME280;61545;53.726;-0.444;2022-07-29T08:02:35;1017.2;;;22.0;58.3
73316;BME280;61545;53.726;-0.444;2022-07-29T08:07:35;1017.2;;;22.5;56.9
73316;BME280;61545;53.726;-0.444;2022-07-29T08:12:35;1017.1;;;21.3;56.1
73316;BME280;61545;53.726;-0.444;2022-07-29T08:17:35;1017.1;;;20.6;55.6
73316;BME280;61545;53.726;-0.444;2022-07-29T08:22:35;1017.1;;;19.5;56.1
73316;BME280;61545;53.726;-0.444;2022-07-29T08:27:35;1017.1;;;19.3;57.2
73316;BME280;61545;53.726;-0.444;2022-07-29T08:32:35;1017.1;;;19.4;57.8
73316;BME280;61545;53.726;-0.444;2022-07-29T08:37:35;1017.2;;;19.2;57.8
73316;BME280;61545;53.726;-0.444;2022-07-29T08:42:35;1017.1;;;19.1;58.3
73316;BME280;61545;53.726;-0.444;2022-07-29T08:47:35;1017.2;;;19.0;58.1
73316;BME280;61545;53.726;-0.444;2022-07-29T08:52:36;1017.1;;;19.4;57.9
73316;BME280;61545;53.726;-0.444;2022-07-29T08:57:35;1017.1;;;19.2;56.9
73316;BME280;61545;53.726;-0.444;2022-07-29T09:02:38;1017.1;;;19.2;55.8
73316;BME280;61545;53.726;-0.444;2022-07-29T09:07:35;1017.1;;;19.2;55.3
73316;BME280;61545;53.726;-0.444;2022-07-29T09:12:35;1017.1;;;18.5;54.5
73316;BME280;61545;53.726;-0.444;2022-07-29T09:17:39;1017.1;;;18.9;55.0
73316;BME280;61545;53.726;-0.444;2022-07-29T09:22:35;1017.2;;;19.0;54.9
73316;BME280;61545;53.726;-0.444;2022-07-29T09:27:35;1017.1;;;18.7;54.2
73316;BME280;61545;53.726;-0.444;2022-07-29T09:32:53;1017.1;;;18.9;54.5
73316;BME280;61545;53.726;-0.444;2022-07-29T09:37:35;1017.0;;;19.0;54.3
73316;BME280;61545;53.726;-0.444;2022-07-29T09:42:35;1017.1;;;19.2;53.9
73316;BME280;61545;53.726;-0.444;2022-07-29T09:48:14;1017.0;;;18.9;53.3
73316;BME280;61545;53.726;-0.444;2022-07-29T09:53:06;1017.1;;;18.9;52.6
73316;BME280;61545;53.726;-0.444;2022-07-29T09:58:14;1017.1;;;18.9;52.3
73316;BME280;61545;53.726;-0.444;2022-07-29T10:03:06;1017.1;;;18.7;52.8
73316;BME280;61545;53.726;-0.444;2022-07-29T10:08:06;1017.2;;;18.9;53.5
73316;BME280;61545;53.726;-0.444;2022-07-29T10:13:07;1017.2;;;18.8;54.5
73316;BME280;61545;53.726;-0.444;2022-07-29T10:18:07;1017.1;;;18.6;54.7
73316;BME280;61545;53.726;-0.444;2022-07-29T10:23:06;1017.1;;;18.5;54.6
73316;BME280;61545;53.726;-0.444;2022-07-29T10:28:06;1017.1;;;18.7;54.7
73316;BME280;61545;53.726;-0.444;2022-07-29T10:33:11;1017.1;;;18.9;54.4
73316;BME280;61545;53.726;-0.444;2022-07-29T10:38:29;1017.0;;;18.7;54.3
73316;BME280;61545;53.726;-0.444;2022-07-29T10:43:09;1017.1;;;18.9;54.5
73316;BME280;61545;53.726;-0.444;2022-07-29T10:48:06;1017.1;;;18.9;53.8
73316;BME280;61545;53.726;-0.444;2022-07-29T10:53:06;1017.1;;;18.9;54.0
73316;BME280;61545;53.726;-0.444;2022-07-29T10:58:14;1017.1;;;19.0;54.1
73316;BME280;61545;53.726;-0.444;2022-07-29T11:03:06;1017.2;;;19.0;54.4
73316;BME280;61545;53.726;-0.444;2022-07-29T11:08:23;1017.2;;;19.1;54.3
73316;BME280;61545;53.726;-0.444;2022-07-29T11:13:06;1017.2;;;18.9;53.5
73316;BME280;61545;53.726;-0.444;2022-07-29T11:18:07;1017.1;;;19.2;53.6
73316;BME280;61545;53.726;-0.444;2022-07-29T11:23:23;1017.1;;;19.2;53.5
73316;BME280;61545;53.726;-0.444;2022-07-29T11:28:09;1017.1;;;19.3;53.2
73316;BME280;61545;53.726;-0.444;2022-07-29T11:33:06;1017.1;;;19.7;52.5
73316;BME280;61545;53.726;-0.444;2022-07-29T11:38:37;1017.1;;;19.7;52.0
73316;BME280;61545;53.726;-0.444;2022-07-29T11:43:06;1017.2;;;19.5;52.0
73316;BME280;61545;53.726;-0.444;2022-07-29T11:48:06;1017.1;;;19.4;51.3
73316;BME280;61545;53.726;-0.444;2022-07-29T11:53:10;1017.1;;;19.3;51.9
73316;BME280;61545;53.726;-0.444;2022-07-29T11:58:06;1017.1;;;19.2;52.7
73316;BME280;61545;53.726;-0.444;2022-07-29T12:03:10;1017.0;;;19.2;52.2
73316;BME280;61545;53.726;-0.444;2022-07-29T12:08:08;1017.1;;;19.5;52.0
73316;BME280;61545;53.726;-0.444;2022-07-29T12:13:06;1017.0;;;19.2;51.6
73316;BME280;61545;53.726;-0.444;2022-07-29T12:18:14;1017.0;;;19.1;50.9
73316;BME280;61545;53.726;-0.444;2022-07-29T12:23:06;1017.0;;;19.1;51.3
73316;BME280;61545;53.726;-0.444;2022-07-29T12:28:07;1017.0;;;19.2;51.9
73316;BME280;61545;53.726;-0.444;2022-07-29T12:33:15;1017.0;;;19.4;52.3
73316;BME280;61545;53.726;-0.444;2022-07-29T12:38:06;1017.0;;;19.4;53.3
73316;BME280;61545;53.726;-0.444;2022-07-29T12:43:07;1017.0;;;20.4;52.6
73316;BME280;61545;53.726;-0.444;2022-07-29T12:48:06;1016.9;;;20.8;50.3
73316;BME280;61545;53.726;-0.444;2022-07-29T12:53:10;1016.8;;;20.7;48.7
73316;BME280;61545;53.726;-0.444;2022-07-29T12:58:06;1016.9;;;20.5;49.3
73316;BME280;61545;53.726;-0.444;2022-07-29T13:03:06;1016.9;;;20.9;49.5
73316;BME280;61545;53.726;-0.444;2022-07-29T13:08:10;1017.0;;;20.3;49.1
73316;BME280;61545;53.726;-0.444;2022-07-29T13:13:07;1016.9;;;20.3;48.5
73316;BME280;61545;53.726;-0.444;2022-07-29T13:18:26;1016.9;;;20.1;48.6
73316;BME280;61545;53.726;-0.444;2022-07-29T13:23:06;1017.0;;;20.3;48.6
73316;BME280;61545;53.726;-0.444;2022-07-29T13:28:06;1017.0;;;20.4;48.8
73316;BME280;61545;53.726;-0.444;2022-07-29T13:33:06;1017.1;;;20.0;49.4
73316;BME280;61545;53.726;-0.444;2022-07-29T13:38:06;1017.0;;;20.0;50.0
73316;BME280;61545;53.726;-0.444;2022-07-29T13:43:08;1017.0;;;20.2;49.0
73316;BME280;61545;53.726;-0.444;2022-07-29T13:48:06;1017.0;;;19.7;50.9
73316;BME280;61545;53.726;-0.444;2022-07-29T13:53:06;1017.0;;;19.7;51.3
73316;BME280;61545;53.726;-0.444;2022-07-29T13:58:06;1016.9;;;19.8;51.4
73316;BME280;61545;53.726;-0.444;2022-07-29T14:03:06;1016.9;;;19.9;51.7
73316;BME280;61545;53.726;-0.444;2022-07-29T14:08:06;1016.8;;;19.9;52.1
73316;BME280;61545;53.726;-0.444;2022-07-29T14:13:06;1016.7;;;21.1;52.0
73316;BME280;61545;53.726;-0.444;2022-07-29T14:18:06;1016.7;;;21.3;48.7
73316;BME280;61545;53.726;-0.444;2022-07-29T14:23:06;1016.7;;;20.7;48.1
73316;BME280;61545;53.726;-0.444;2022-07-29T14:28:06;1016.8;;;20.0;49.1
73316;BME280;61545;53.726;-0.444;2022-07-29T14:33:06;1016.7;;;19.9;49.3
73316;BME280;61545;53.726;-0.444;2022-07-29T14:38:06;1016.7;;;20.0;50.3
73316;BME280;61545;53.726;-0.444;2022-07-29T14:43:06;1016.5;;;20.2;50.1
73316;BME280;61545;53.726;-0.444;2022-07-29T14:48:06;1016.3;;;21.0;49.1
73316;BME280;61545;53.726;-0.444;2022-07-29T14:53:06;1016.4;;;20.5;48.9
73316;BME280;61545;53.726;-0.444;2022-07-29T14:58:06;1016.3;;;20.1;49.0
73316;BME280;61545;53.726;-0.444;2022-07-29T15:03:06;1016.4;;;20.0;50.2
73316;BME280;61545;53.726;-0.444;2022-07-29T15:08:06;1016.5;;;19.9;50.8
73316;BME280;61545;53.726;-0.444;2022-07-29T15:13:06;1016.5;;;20.0;50.8
73316;BME280;61545;53.726;-0.444;2022-07-29T15:18:06;1016.5;;;20.0;51.2
73316;BME280;61545;53.726;-0.444;2022-07-29T15:23:06;1016.6;;;20.1;52.0
73316;BME280;61545;53.726;-0.444;2022-07-29T15:28:06;1016.6;;;19.8;52.0
73316;BME280;61545;53.726;-0.444;2022-07-29T15:33:06;1016.6;;;19.6;53.4
73316;BME280;61545;53.726;-0.444;2022-07-29T15:38:06;1016.7;;;19.4;53.8
73316;BME280;61545;53.726;-0.444;2022-07-29T15:43:06;1016.6;;;19.4;54.4
73316;BME280;61545;53.726;-0.444;2022-07-29T15:48:07;1016.6;;;19.6;54.4
73316;BME280;61545;53.726;-0.444;2022-07-29T15:53:06;1016.6;;;19.5;54.7
73316;BME280;61545;53.726;-0.444;2022-07-29T15:58:06;1016.6;;;19.6;54.8
73316;BME280;61545;53.726;-0.444;2022-07-29T16:03:06;1016.6;;;19.4;55.3
73316;BME280;61545;53.726;-0.444;2022-07-29T16:08:06;1016.6;;;19.4;56.1
73316;BME280;61545;53.726;-0.444;2022-07-29T16:13:06;1016.5;;;19.6;56.1
73316;BME280;61545;53.726;-0.444;2022-07-29T16:18:06;1016.5;;;19.5;56.0
73316;BME280;61545;53.726;-0.444;2022-07-29T16:23:06;1016.5;;;19.7;56.1
73316;BME280;61545;53.726;-0.444;2022-07-29T16:28:06;1016.5;;;19.2;56.3
73316;BME280;61545;53.726;-0.444;2022-07-29T16:33:06;1016.4;;;19.1;56.7
73316;BME280;61545;53.726;-0.444;2022-07-29T16:38:06;1016.4;;;19.3;56.0
73316;BME280;61545;53.726;-0.444;2022-07-29T16:43:06;1016.5;;;18.9;56.5
73316;BME280;61545;53.726;-0.444;2022-07-29T16:48:06;1016.5;;;18.7;57.7
73316;BME280;61545;53.726;-0.444;2022-07-29T16:53:06;1016.4;;;18.5;57.7
73316;BME280;61545;53.726;-0.444;2022-07-29T16:58:06;1016.3;;;19.1;57.2
73316;BME280;61545;53.726;-0.444;2022-07-29T17:03:06;1016.3;;;18.7;56.8
73316;BME280;61545;53.726;-0.444;2022-07-29T17:08:06;1016.3;;;18.9;56.6
73316;BME280;61545;53.726;-0.444;2022-07-29T17:13:06;1016.3;;;18.7;56.4
73316;BME280;61545;53.726;-0.444;2022-07-29T17:18:06;1016.3;;;18.3;57.2
73316;BME280;61545;53.726;-0.444;2022-07-29T17:23:06;1016.3;;;18.4;57.7
73316;BME280;61545;53.726;-0.444;2022-07-29T17:28:06;1016.3;;;18.3;57.9
73316;BME280;61545;53.726;-0.444;2022-07-29T17:33:06;1016.3;;;18.1;58.4
73316;BME280;61545;53.726;-0.444;2022-07-29T17:38:06;1016.3;;;18.0;59.2
73316;BME280;61545;53.726;-0.444;2022-07-29T17:43:06;1016.3;;;18.1;60.2
73316;BME280;61545;53.726;-0.444;2022-07-29T17:48:06;1016.3;;;18.0;60.7
73316;BME280;61545;53.726;-0.444;2022-07-29T17:53:06;1016.3;;;18.0;61.7
73316;BME280;61545;53.726;-0.444;2022-07-29T17:58:06;1016.3;;;18.0;61.6
73316;BME280;61545;53.726;-0.444;2022-07-29T18:03:06;1016.4;;;17.9;61.3
73316;BME280;61545;53.726;-0.444;2022-07-29T18:08:06;1016.3;;;17.9;61.3
73316;BME280;61545;53.726;-0.444;2022-07-29T18:13:06;1016.4;;;17.9;61.5
73316;BME280;61545;53.726;-0.444;2022-07-29T18:18:06;1016.3;;;17.7;62.0
73316;BME280;61545;53.726;-0.444;2022-07-29T18:23:06;1016.3;;;17.5;62.6
73316;BME280;61545;53.726;-0.444;2022-07-29T18:28:06;1016.3;;;17.9;62.7
73316;BME280;61545;53.726;-0.444;2022-07-29T18:33:06;1016.4;;;17.7;62.7
73316;BME280;61545;53.726;-0.444;2022-07-29T18:38:06;1016.4;;;17.7;63.0
73316;BME280;61545;53.726;-0.444;2022-07-29T18:43:06;1016.3;;;17.5;63.3
73316;BME280;61545;53.726;-0.444;2022-07-29T18:48:06;1016.3;;;17.5;63.7
73316;BME280;61545;53.726;-0.444;2022-07-29T18:53:06;1016.3;;;17.4;64.1
73316;BME280;61545;53.726;-0.444;2022-07-29T18:58:06;1016.2;;;17.5;64.3
73316;BME280;61545;53.726;-0.444;2022-07-29T19:03:06;1016.2;;;17.4;64.2
73316;BME280;61545;53.726;-0.444;2022-07-29T19:08:06;1016.3;;;17.4;64.4
73316;BME280;61545;53.726;-0.444;2022-07-29T19:13:06;1016.3;;;17.3;64.7
73316;BME280;61545;53.726;-0.444;2022-07-29T19:18:06;1016.3;;;17.2;65.2
73316;BME280;61545;53.726;-0.444;2022-07-29T19:23:06;1016.2;;;17.0;65.4
73316;BME280;61545;53.726;-0.444;2022-07-29T19:28:06;1016.3;;;17.2;65.6
73316;BME280;61545;53.726;-0.444;2022-07-29T19:33:06;1016.3;;;17.0;65.7
73316;BME280;61545;53.726;-0.444;2022-07-29T19:38:06;1016.4;;;17.2;65.8
73316;BME280;61545;53.726;-0.444;2022-07-29T19:43:06;1016.4;;;17.2;65.5
73316;BME280;61545;53.726;-0.444;2022-07-29T19:48:06;1016.3;;;17.1;65.1
73316;BME280;61545;53.726;-0.444;2022-07-29T19:53:06;1016.3;;;17.2;64.9
73316;BME280;61545;53.726;-0.444;2022-07-29T19:58:06;1016.3;;;17.0;64.8
73316;BME280;61545;53.726;-0.444;2022-07-29T20:03:06;1016.2;;;17.0;64.9
73316;BME280;61545;53.726;-0.444;2022-07-29T20:08:06;1016.2;;;16.9;65.0
73316;BME280;61545;53.726;-0.444;2022-07-29T20:13:06;1016.1;;;17.0;65.3
73316;BME280;61545;53.726;-0.444;2022-07-29T20:18:06;1016.1;;;16.8;65.4
73316;BME280;61545;53.726;-0.444;2022-07-29T20:23:06;1016.1;;;16.7;65.7
73316;BME280;61545;53.726;-0.444;2022-07-29T20:28:06;1016.1;;;16.9;65.9
73316;BME280;61545;53.726;-0.444;2022-07-29T20:33:06;1016.0;;;16.8;66.2
73316;BME280;61545;53.726;-0.444;2022-07-29T20:38:06;1016.0;;;16.7;66.5
73316;BME280;61545;53.726;-0.444;2022-07-29T20:43:06;1016.1;;;16.7;66.9
73316;BME280;61545;53.726;-0.444;2022-07-29T20:48:06;1016.1;;;16.7;67.5
73316;BME280;61545;53.726;-0.444;2022-07-29T20:53:06;1016.2;;;16.5;67.8
73316;BME280;61545;53.726;-0.444;2022-07-29T20:58:06;1016.2;;;16.6;68.1
73316;BME280;61545;53.726;-0.444;2022-07-29T21:03:06;1016.3;;;16.5;68.3
73316;BME280;61545;53.726;-0.444;2022-07-29T21:08:06;1016.2;;;16.6;68.4
73316;BME280;61545;53.726;-0.444;2022-07-29T21:13:06;1016.2;;;16.6;68.6
73316;BME280;61545;53.726;-0.444;2022-07-29T21:18:06;1016.2;;;16.5;69.0
73316;BME280;61545;53.726;-0.444;2022-07-29T21:23:06;1016.2;;;16.4;69.3
73316;BME280;61545;53.726;-0.444;2022-07-29T21:28:06;1016.2;;;16.4;69.7
73316;BME280;61545;53.726;-0.444;2022-07-29T21:33:06;1016.2;;;16.4;70.0
73316;BME280;61545;53.726;-0.444;2022-07-29T21:38:06;1016.2;;;16.6;70.0
73316;BME280;61545;53.726;-0.444;2022-07-29T21:43:06;1016.2;;;16.4;70.0
73316;BME280;61545;53.726;-0.444;2022-07-29T21:48:06;1016.2;;;16.4;70.3
73316;BME280;61545;53.726;-0.444;2022-07-29T21:53:06;1016.2;;;16.4;70.6
73316;BME280;61545;53.726;-0.444;2022-07-29T21:58:06;1016.2;;;16.4;70.7
73316;BME280;61545;53.726;-0.444;2022-07-29T22:03:06;1016.1;;;16.4;70.9
73316;BME280;61545;53.726;-0.444;2022-07-29T22:08:06;1016.2;;;16.3;70.9
73316;BME280;61545;53.726;-0.444;2022-07-29T22:13:06;1016.1;;;16.3;71.1
73316;BME280;61545;53.726;-0.444;2022-07-29T22:18:06;1016.1;;;16.3;71.3
73316;BME280;61545;53.726;-0.444;2022-07-29T22:23:06;1016.1;;;16.4;71.3
73316;BME280;61545;53.726;-0.444;2022-07-29T22:28:06;1016.0;;;16.3;71.4
73316;BME280;61545;53.726;-0.444;2022-07-29T22:33:06;1016.0;;;16.4;71.4
73316;BME280;61545;53.726;-0.444;2022-07-29T22:38:06;1016.1;;;16.4;71.5
73316;BME280;61545;53.726;-0.444;2022-07-29T22:43:06;1016.0;;;16.4;71.5
73316;BME280;61545;53.726;-0.444;2022-07-29T22:48:06;1016.0;;;16.4;71.5
73316;BME280;61545;53.726;-0.444;2022-07-29T22:53:06;1016.0;;;16.2;71.4
73316;BME280;61545;53.726;-0.444;2022-07-29T22:58:06;1015.9;;;16.2;71.6
73316;BME280;61545;53.726;-0.444;2022-07-29T23:03:06;1015.9;;;16.2;71.6
73316;BME280;61545;53.726;-0.444;2022-07-29T23:08:06;1015.8;;;16.2;71.7
73316;BME280;61545;53.726;-0.444;2022-07-29T23:13:06;1015.7;;;16.2;72.0
73316;BME280;61545;53.726;-0.444;2022-07-29T23:18:06;1015.7;;;16.2;72.0
73316;BME280;61545;53.726;-0.444;2022-07-29T23:23:06;1015.7;;;16.2;72.0
73316;BME280;61545;53.726;-0.444;2022-07-29T23:28:06;1015.7;;;16.2;72.1
73316;BME280;61545;53.726;-0.444;2022-07-29T23:33:06;1015.6;;;16.2;72.2
73316;BME280;61545;53.726;-0.444;2022-07-29T23:38:06;1015.6;;;16.1;72.2
73316;BME280;61545;53.726;-0.444;2022-07-29T23:43:06;1015.6;;;16.2;72.1
73316;BME280;61545;53.726;-0.444;2022-07-29T23:48:06;1015.6;;;16.1;72.2
73316;BME280;61545;53.726;-0.444;2022-07-29T23:53:06;1015.5;;;16.2;72.2
73316;BME280;61545;53.726;-0.444;2022-07-29T23:58:06;1015.4;;;16.1;72.3
